Time;durP1;ratioP1;P1;durP2;ratioP2;P2;SDS_P1;SDS_P2;PMS_P1;PMS_P2;Temp;Humidity;BMP_temperature;BMP_pressure;BME280_temperature;BME280_humidity;BME280_pressure;Samples;Min_cycle;Max_cycle;Signal;HPM_P1;HPM_P2
2023/05/29 00:01:47;;;;;;;1.20;1.20;;;;;;;-146.24;76.87;47001.84;4976911;28;20255;-94
2023/05/29 00:04:21;;;;;;;1.67;1.37;;;;;;;-146.24;77.00;46994.16;4977596;28;20214;-96
2023/05/29 00:07:01;;;;;;;1.27;1.27;;;;;;;-146.24;77.33;47063.22;4977648;28;20209;-95
2023/05/29 00:09:44;;;;;;;0.77;0.77;;;;;;;-146.24;78.18;47044.06;4979272;28;20217;-93
2023/05/29 00:12:34;;;;;;;0.83;0.83;;;;;;;-146.24;78.53;46992.25;4993744;28;20266;-94
2023/05/29 00:15:18;;;;;;;1.27;0.97;;;;;;;-146.24;77.86;46967.31;4993383;28;20218;-93
2023/05/29 00:18:19;;;;;;;1.07;0.97;;;;;;;-146.24;78.98;47005.69;4993944;28;20206;-95
2023/05/29 00:21:03;;;;;;;1.60;0.90;;;;;;;-146.24;78.58;46963.47;4964268;28;20293;-94
2023/05/29 00:23:39;;;;;;;1.23;1.23;;;;;;;-146.24;78.25;46969.22;4993384;28;20674;-94
2023/05/29 00:26:18;;;;;;;2.87;1.90;;;;;;;-146.24;78.06;47042.13;4993896;28;20204;-93
2023/05/29 00:28:53;;;;;;;3.57;0.83;;;;;;;-146.24;78.12;46988.41;4993676;28;20190;-95
2023/05/29 00:31:29;;;;;;;1.47;1.40;;;;;;;-146.24;78.65;46959.63;4993742;28;20208;-93
2023/05/29 00:36:56;;;;;;;0.93;0.93;;;;;;;-146.24;77.28;47028.69;4972090;28;20677;-93
2023/05/29 00:39:35;;;;;;;1.30;1.30;;;;;;;-146.24;77.05;47001.84;4993106;28;20324;-93
2023/05/29 00:42:09;;;;;;;1.23;1.23;;;;;;;-146.24;77.29;47011.44;4992698;28;20210;-95
2023/05/29 00:44:42;;;;;;;1.40;1.10;;;;;;;-146.24;76.09;46974.97;4993896;28;20672;-93
2023/05/29 00:47:22;;;;;;;1.17;1.07;;;;;;;-146.24;75.83;47044.06;4992852;28;20200;-93
2023/05/29 00:49:56;;;;;;;1.13;1.13;;;;;;;-146.24;76.15;47063.22;4992555;28;20300;-95
2023/05/29 00:52:43;;;;;;;1.60;1.50;;;;;;;-146.24;75.63;47036.38;4992668;28;20303;-94
2023/05/29 00:55:17;;;;;;;0.97;0.90;;;;;;;-146.24;75.19;46992.25;4992988;28;20200;-96
2023/05/29 00:57:58;;;;;;;1.77;1.50;;;;;;;-146.24;75.71;46986.50;4993763;28;20243;-95
2023/05/29 01:00:59;;;;;;;1.20;1.13;;;;;;;-146.24;76.84;47030.63;4998764;28;20238;-95
2023/05/29 01:03:38;;;;;;;1.20;1.20;;;;;;;-146.24;76.62;46973.06;4999499;28;20204;-94
2023/05/29 01:06:27;;;;;;;1.40;1.30;;;;;;;-146.24;77.09;47030.63;4998546;28;20284;-93
2023/05/29 01:09:12;;;;;;;3.80;1.30;;;;;;;-146.24;77.21;46984.56;4998056;28;20224;-94
2023/05/29 01:12:12;;;;;;;1.20;1.20;;;;;;;-146.24;77.27;47001.84;4995509;28;20231;-93
2023/05/29 01:15:06;;;;;;;;;;;;;;;;;;;;;
2023/05/29 01:20:58;;;;;;;1.27;1.23;;;;;;;-146.24;77.05;46974.97;5002460;28;20243;-94
2023/05/29 01:24:16;;;;;;;;;;;;;;;;;;;;;
2023/05/29 01:27:03;;;;;;;1.40;1.30;;;;;;;-146.24;77.42;46978.81;4940625;29;20214;-94
2023/05/29 01:29:43;;;;;;;1.50;1.40;;;;;;;-146.24;77.38;46996.09;4937601;29;20297;-94
2023/05/29 01:32:17;;;;;;;1.10;1.10;;;;;;;-146.24;76.96;47001.84;4938692;29;20261;-94
2023/05/29 01:34:53;;;;;;;2.63;1.03;;;;;;;-146.24;77.83;46999.91;4969219;28;20403;-94
2023/05/29 01:37:28;;;;;;;0.80;0.80;;;;;;;-146.24;77.04;46963.47;4997090;28;20206;-94
2023/05/29 01:40:08;;;;;;;;;;;;;;;;;;;;;
2023/05/29 01:46:10;;;;;;;;;;;;;;;;;;;;;
2023/05/29 01:48:50;;;;;;;4.33;1.30;;;;;;;-146.24;77.63;46980.72;4997538;28;20203;-94
2023/05/29 01:51:21;;;;;;;1.57;1.43;;;;;;;-146.24;78.88;46986.50;5008758;28;20215;-93
2023/05/29 01:53:56;;;;;;;4.83;1.40;;;;;;;-146.24;80.07;47001.84;5009468;28;20256;-94
2023/05/29 01:56:44;;;;;;;2.70;2.13;;;;;;;-146.24;77.61;46973.06;5009811;28;20199;-93
2023/05/29 01:59:18;;;;;;;1.27;0.97;;;;;;;-146.24;77.46;47024.88;5010953;28;20228;-93
2023/05/29 02:01:54;;;;;;;1.50;1.40;;;;;;;-146.24;76.63;46994.16;5007351;28;20214;-92
2023/05/29 02:04:32;;;;;;;1.90;1.77;;;;;;;-146.24;75.94;47055.56;5004347;28;20204;-95
2023/05/29 02:07:06;;;;;;;2.03;1.80;;;;;;;-146.24;76.98;47067.06;5003523;28;20669;-93
2023/05/29 02:09:54;;;;;;;;;;;;;;;;;;;;;
2023/05/29 02:12:52;;;;;;;1.20;1.20;;;;;;;-146.24;75.89;46988.41;5003531;28;20237;-93
2023/05/29 02:15:28;;;;;;;2.37;1.37;;;;;;;-146.24;75.44;46984.56;4996579;28;20208;-94
2023/05/29 02:17:59;;;;;;;1.60;1.50;;;;;;;-146.24;76.65;47011.44;4995493;28;20814;-94
2023/05/29 02:20:28;;;;;;;3.00;1.60;;;;;;;-146.24;76.48;47028.69;4997520;28;20260;-94
2023/05/29 02:23:09;;;;;;;1.47;1.37;;;;;;;-146.24;77.65;46973.06;5009677;28;20286;-93
2023/05/29 02:25:44;;;;;;;1.57;1.30;;;;;;;-146.24;78.98;47067.06;4995595;28;20371;-93
2023/05/29 02:28:24;;;;;;;1.53;1.40;;;;;;;-146.24;78.50;47005.69;4997280;28;20201;-92
2023/05/29 02:31:06;;;;;;;1.80;1.37;;;;;;;-146.24;78.30;47051.72;4996873;28;20303;-95
2023/05/29 02:33:44;;;;;;;1.47;1.47;;;;;;;-146.24;78.38;46984.56;4994614;28;20226;-94
2023/05/29 02:36:20;;;;;;;1.37;1.27;;;;;;;-146.24;78.83;47047.88;4995800;28;20691;-94
2023/05/29 02:38:52;;;;;;;1.30;1.30;;;;;;;-146.24;77.97;47001.84;5001798;28;20188;-94
2023/05/29 02:41:22;;;;;;;1.40;1.40;;;;;;;-146.24;78.21;47036.38;5012119;28;20239;-94
2023/05/29 02:43:55;;;;;;;1.53;1.50;;;;;;;-146.24;77.86;46984.56;5012181;28;20675;-94
2023/05/29 02:46:30;;;;;;;2.00;1.63;;;;;;;-146.24;79.08;46976.91;5011619;28;20205;-94
2023/05/29 02:48:59;;;;;;;1.60;1.60;;;;;;;-146.24;78.72;46982.66;5012242;28;20187;-95
2023/05/29 02:51:33;;;;;;;1.50;1.50;;;;;;;-146.24;78.41;46974.97;5014951;28;20206;-94
2023/05/29 02:54:05;;;;;;;1.83;1.73;;;;;;;-146.24;77.95;47042.13;5015515;28;20259;-95
2023/05/29 02:56:38;;;;;;;21.17;11.77;;;;;;;-146.24;78.05;47003.75;5001386;28;20231;-94
2023/05/29 02:59:12;;;;;;;14.40;7.40;;;;;;;-146.24;77.50;47026.78;4997470;28;20199;-94
2023/05/29 03:01:58;;;;;;;2.50;2.20;;;;;;;-146.24;77.68;46988.41;4996379;28;20758;-92
2023/05/29 03:04:31;;;;;;;1.90;1.63;;;;;;;-146.24;77.04;47013.34;4995453;28;20207;-95
2023/05/29 03:07:09;;;;;;;11.13;2.20;;;;;;;-146.24;78.93;46986.50;4994367;28;20203;-94
2023/05/29 03:09:44;;;;;;;1.87;1.70;;;;;;;-146.24;77.86;46965.38;4994728;28;20281;-93
2023/05/29 03:12:19;;;;;;;1.50;1.47;;;;;;;-146.24;76.42;46992.25;4995045;28;20334;-95
2023/05/29 03:15:10;;;;;;;2.37;2.10;;;;;;;-146.24;75.69;46978.81;4981813;28;20211;-94
2023/05/29 03:17:55;;;;;;;1.60;1.53;;;;;;;-146.24;74.75;47067.06;4982759;28;20236;-93
2023/05/29 03:20:31;;;;;;;1.30;1.20;;;;;;;-146.24;73.88;47032.53;4984967;28;20267;-93
2023/05/29 03:23:11;;;;;;;1.37;1.27;;;;;;;-146.24;72.71;46998.00;4989040;28;20250;-93
2023/05/29 03:25:56;;;;;;;2.90;1.83;;;;;;;-146.24;72.70;47028.69;4988447;28;20209;-93
2023/05/29 03:28:31;;;;;;;1.77;1.67;;;;;;;-146.24;72.38;47015.28;4993661;28;20247;-94
2023/05/29 03:31:09;;;;;;;2.20;2.03;;;;;;;-146.24;73.04;47051.72;4996189;28;20272;-95
2023/05/29 03:33:54;;;;;;;2.47;1.93;;;;;;;-146.24;68.58;47097.78;4996208;28;20248;-94
2023/05/29 03:36:42;;;;;;;1.80;1.70;;;;;;;-146.24;67.97;47030.63;4974953;28;20207;-94
2023/05/29 03:39:44;;;;;;;2.70;1.90;;;;;;;-146.24;66.68;47105.44;4981907;28;20223;-95
2023/05/29 03:42:19;;;;;;;2.80;1.80;;;;;;;-146.24;66.47;47072.81;4984960;28;20218;-93
2023/05/29 03:48:16;;;;;;;1.55;1.45;;;;;;;-146.24;66.78;47047.88;4934031;28;20280;-96
2023/05/29 03:51:17;;;;;;;;;;;;;;;;;;;;;
2023/05/29 03:53:52;;;;;;;2.22;2.03;;;;;;;-146.24;67.45;47022.94;4974825;28;20234;-94
2023/05/29 03:56:32;;;;;;;1.67;1.58;;;;;;;-146.24;67.94;47055.56;4975912;28;20210;-95
2023/05/29 03:59:12;;;;;;;1.70;1.60;;;;;;;-146.24;68.08;47059.41;4974195;28;20208;-93
2023/05/29 04:04:43;;;;;;;1.85;1.75;;;;;;;-146.24;66.74;47051.72;4957042;28;20238;-92
2023/05/29 04:07:33;;;;;;;1.80;1.70;;;;;;;-146.24;67.12;47053.63;4954418;29;20191;-94
2023/05/29 04:13:11;;;;;;;2.63;2.00;;;;;;;-146.24;65.23;47030.63;4952724;28;20296;-95
2023/05/29 04:19:20;;;;;;;;;;;;;;;;;;;;;
2023/05/29 04:22:07;;;;;;;1.70;1.50;;;;;;;-146.24;65.70;47047.88;4952640;28;20235;-94
2023/05/29 04:25:08;;;;;;;0.90;0.90;;;;;;;-146.24;64.74;47101.59;4954198;29;20210;-95
2023/05/29 04:27:57;;;;;;;1.25;1.15;;;;;;;-146.24;66.81;47044.06;4952988;29;20199;-94
2023/05/29 04:31:14;;;;;;;1.23;1.23;;;;;;;-146.24;66.26;47042.13;4953428;29;20207;-94
2023/05/29 04:33:55;;;;;;;3.80;1.88;;;;;;;-146.24;67.25;47042.13;4948648;28;20238;-96
2023/05/29 04:36:45;;;;;;;1.98;1.83;;;;;;;-146.24;66.40;47059.41;4952309;29;20280;-94
2023/05/29 04:39:51;;;;;;;1.85;1.75;;;;;;;-146.24;66.76;47074.75;4953096;29;20853;-95
2023/05/29 04:42:34;;;;;;;2.25;1.55;;;;;;;-146.24;65.64;47097.78;4953422;29;20620;-95
2023/05/29 04:48:23;;;;;;;;;;;;;;;;;;;;;
2023/05/29 04:51:08;;;;;;;4.28;1.42;;;;;;;-146.24;63.10;47078.59;4954034;29;20210;-94
2023/05/29 04:54:06;;;;;;;1.70;1.60;;;;;;;-146.24;61.36;47120.78;4954716;28;20711;-94
2023/05/29 04:57:03;;;;;;;2.10;2.00;;;;;;;-146.24;62.90;47111.19;4954804;29;20201;-95
2023/05/29 05:27:07;;;;;;;2.30;2.20;;;;;;;-146.24;52.36;47209.06;4845787;29;20229;-94
2023/05/29 05:36:44;;;;;;;2.30;2.00;;;;;;;-146.24;53.89;47163.00;4965147;29;20207;-95
2023/05/29 05:39:46;;;;;;;2.25;2.03;;;;;;;-146.24;56.14;47147.66;4968534;28;20688;-93
2023/05/29 05:42:47;;;;;;;2.67;2.28;;;;;;;-146.24;56.23;47090.09;4969429;28;20269;-93
2023/05/29 05:49:04;;;;;;;2.72;2.55;;;;;;;-146.24;55.15;47093.94;4969278;28;20238;-93
2023/05/29 05:58:28;;;;;;;1.52;1.42;;;;;;;-146.24;54.65;47224.41;4955691;29;20207;-94
2023/05/29 06:01:42;;;;;;;2.00;1.90;;;;;;;-146.24;53.89;47184.09;4955688;29;20726;-96
2023/05/29 06:04:59;;;;;;;1.98;1.77;;;;;;;-146.24;49.47;47195.63;4958743;28;20222;-95
2023/05/29 06:07:39;;;;;;;1.70;1.60;;;;;;;-146.24;50.13;47214.81;4940268;29;20286;-94
2023/05/29 06:10:29;;;;;;;1.33;1.33;;;;;;;-146.24;48.60;47232.06;4938389;29;20398;-95
2023/05/29 06:13:16;;;;;;;3.53;1.75;;;;;;;-146.24;49.62;47205.22;4945329;28;20253;-94
2023/05/29 06:16:13;;;;;;;3.97;1.92;;;;;;;-146.24;47.73;47205.22;4939686;29;20258;-95
2023/05/29 06:18:45;;;;;;;2.60;2.40;;;;;;;-146.24;44.95;47347.19;4960557;29;20206;-94
2023/05/29 06:21:28;;;;;;;1.52;1.42;;;;;;;-146.24;40.05;47400.94;4960827;29;20237;-96
2023/05/29 06:24:08;;;;;;;1.65;1.55;;;;;;;-146.25;100.00;57403.91;4976951;28;20206;-94
2023/05/29 06:29:32;;;;;;;2.40;2.28;;;;;;;-146.25;100.00;57403.91;4964026;28;20207;-94
2023/05/29 06:32:14;;;;;;;1.52;1.42;;;;;;;-146.25;100.00;57403.91;4962913;29;20211;-93
2023/05/29 06:34:49;;;;;;;3.33;1.70;;;;;;;-146.25;100.00;57403.91;4961958;28;20205;-95
2023/05/29 06:37:32;;;;;;;1.73;1.63;;;;;;;-146.25;100.00;57403.91;4964329;29;20222;-94
2023/05/29 06:40:10;;;;;;;1.55;1.45;;;;;;;-146.25;100.00;57403.91;4957095;29;20199;-93
2023/05/29 06:42:51;;;;;;;2.55;1.55;;;;;;;-146.25;100.00;57403.91;4958951;29;20234;-94
2023/05/29 06:45:30;;;;;;;2.17;1.42;;;;;;;-146.25;100.00;57403.91;4958385;29;20233;-94
2023/05/29 06:51:29;;;;;;;1.52;1.42;;;;;;;-146.25;100.00;57403.91;4948978;29;20261;-94
2023/05/29 06:59:58;;;;;;;0.88;0.88;;;;;;;-146.25;100.00;57403.91;4894374;29;20204;-93
2023/05/29 07:09:13;;;;;;;0.93;0.93;;;;;;;-146.25;100.00;57403.91;4886348;29;20300;-93
2023/05/29 07:12:16;;;;;;;0.85;0.65;;;;;;;-146.25;100.00;57403.91;4966885;28;20254;-94
2023/05/29 07:17:59;;;;;;;0.90;0.90;;;;;;;-146.25;100.00;57403.91;4964296;28;20230;-93
2023/05/29 07:20:55;;;;;;;;;;;;;;;;;;;;;
2023/05/29 07:24:24;;;;;;;1.48;1.13;;;;;;;-146.25;100.00;57403.91;4966327;28;20235;-95
2023/05/29 07:27:13;;;;;;;1.50;1.08;;;;;;;-146.25;100.00;57403.91;4863625;29;20257;-94
2023/05/29 07:29:59;;;;;;;1.23;1.13;;;;;;;-146.25;100.00;57403.91;4954377;28;20536;-94
2023/05/29 07:39:01;;;;;;;;;;;;;;;;;;;;;
2023/05/29 07:42:06;;;;;;;0.80;0.80;;;;;;;-146.25;100.00;57403.91;4958063;28;20238;-94
2023/05/29 07:44:56;;;;;;;0.88;0.88;;;;;;;-146.25;100.00;57403.91;4959604;28;20579;-96
2023/05/29 07:48:09;;;;;;;0.80;0.80;;;;;;;-146.25;100.00;57403.91;4952468;28;20250;-94
2023/05/29 07:51:13;;;;;;;0.70;0.70;;;;;;;-146.25;100.00;57403.91;4966562;28;20249;-93
2023/05/29 07:57:33;;;;;;;0.75;0.75;;;;;;;-146.25;100.00;57403.91;4769683;30;20257;-92
2023/05/29 08:04:00;;;;;;;0.73;0.73;;;;;;;-146.25;100.00;57403.91;4814341;29;20295;-94
2023/05/29 08:07:26;;;;;;;;;;;;;;;;;;;;;
2023/05/29 08:10:36;;;;;;;0.95;0.95;;;;;;;-146.25;100.00;57403.91;4934079;29;20243;-95
2023/05/29 08:16:44;;;;;;;1.02;1.02;;;;;;;-146.25;100.00;57403.91;4931515;29;20231;-93
2023/05/29 08:22:57;;;;;;;0.65;0.65;;;;;;;-146.25;100.00;57403.91;4887195;29;20251;-94
2023/05/29 08:25:43;;;;;;;;;;;;;;;;;;;;;
2023/05/29 08:28:16;;;;;;;1.23;1.23;;;;;;;-146.25;100.00;57403.91;4932490;29;20250;-93
2023/05/29 08:31:00;;;;;;;0.70;0.70;;;;;;;-146.25;100.00;57403.91;4934813;29;20223;-93
2023/05/29 08:33:49;;;;;;;1.02;1.02;;;;;;;-146.25;100.00;57403.91;4933105;29;20708;-94
2023/05/29 08:36:35;;;;;;;;;;;;;;;;;;;;;
2023/05/29 08:39:21;;;;;;;0.73;0.73;;;;;;;-146.25;100.00;57403.91;4933183;29;20227;-94
2023/05/29 08:42:09;;;;;;;1.52;1.42;;;;;;;-146.25;100.00;57403.91;4931383;29;20235;-93
2023/05/29 08:44:43;;;;;;;0.82;0.82;;;;;;;-146.25;100.00;57403.91;4934797;29;20242;-93
2023/05/29 08:47:20;;;;;;;0.90;0.90;;;;;;;-146.25;100.00;57403.91;4930876;29;20321;-93
2023/05/29 08:50:00;;;;;;;1.40;0.77;;;;;;;-146.25;100.00;57403.91;4933811;29;20227;-94
2023/05/29 08:56:39;;;;;;;;;;;;;;;;;;;;;
2023/05/29 09:06:19;;;;;;;;;;;;;;;;;;;;;
2023/05/29 09:12:53;;;;;;;1.20;1.10;;;;;;;-146.25;100.00;57403.91;4989249;28;20346;-95
2023/05/29 09:15:36;;;;;;;0.90;0.90;;;;;;;-146.25;100.00;57403.91;4986484;28;20312;-94
2023/05/29 09:18:29;;;;;;;0.77;0.77;;;;;;;-146.25;100.00;57403.91;4991742;28;20334;-94
2023/05/29 09:21:12;;;;;;;1.00;1.00;;;;;;;-146.25;100.00;57403.91;4993745;28;20225;-93
2023/05/29 09:24:04;;;;;;;1.25;1.25;;;;;;;-146.25;100.00;57403.91;4994794;28;20234;-93
2023/05/29 09:26:36;;;;;;;1.25;1.20;;;;;;;-146.25;100.00;57403.91;4997003;28;20229;-92
2023/05/29 09:41:48;;;;;;;2.83;0.90;;;;;;;-146.25;100.00;57403.91;4985597;28;20289;-94
2023/05/29 09:44:45;;;;;;;;;;;;;;;;;;;;;
2023/05/29 09:47:54;;;;;;;1.42;1.10;;;;;;;-146.25;100.00;57403.91;4994128;28;20618;-94
2023/05/29 09:50:43;;;;;;;1.15;1.15;;;;;;;-146.25;100.00;57403.91;4991729;28;20198;-93
2023/05/29 09:53:50;;;;;;;0.95;0.95;;;;;;;-146.25;100.00;57403.91;4996242;28;20558;-95
2023/05/29 09:57:23;;;;;;;;;;;;;;;;;;;;;
2023/05/29 10:00:12;;;;;;;1.70;1.60;;;;;;;-146.25;100.00;57403.91;4979768;28;20202;-94
2023/05/29 10:03:15;;;;;;;;;;;;;;;;;;;;;
2023/05/29 10:06:02;;;;;;;1.55;1.45;;;;;;;-146.25;100.00;57403.91;5013323;28;20594;-94
2023/05/29 10:09:07;;;;;;;;;;;;;;;;;;;;;
2023/05/29 10:12:45;;;;;;;0.80;0.80;;;;;;;-146.25;100.00;57403.91;5008431;28;20220;-94
2023/05/29 10:23:59;;;;;;;1.23;1.23;;;;;;;-146.25;100.00;57403.91;5030558;28;20307;-93
2023/05/29 10:42:49;;;;;;;0.93;0.93;;;;;;;-146.25;100.00;57403.91;4979225;28;20244;-94
2023/05/29 10:46:13;;;;;;;1.20;1.20;;;;;;;-146.25;100.00;57403.91;4975617;28;20229;-93
2023/05/29 10:52:24;;;;;;;1.30;1.20;;;;;;;-146.25;100.00;57403.91;4878948;29;20216;-95
2023/05/29 10:55:28;;;;;;;0.95;0.95;;;;;;;-146.25;100.00;57403.91;4976980;28;20198;-94
2023/05/29 10:58:38;;;;;;;1.75;1.65;;;;;;;-146.25;100.00;57403.91;4976891;28;20651;-93
2023/05/29 11:01:30;;;;;;;1.77;0.98;;;;;;;-146.25;100.00;57403.91;4975605;28;20290;-94
2023/05/29 11:04:57;;;;;;;0.90;0.90;;;;;;;-146.25;100.00;57403.91;4974819;28;20241;-92
2023/05/29 11:08:18;;;;;;;;;;;;;;;;;;;;;
2023/05/29 11:11:45;;;;;;;0.93;0.93;;;;;;;-146.25;100.00;57403.91;4985998;28;20724;-94
2023/05/29 11:14:45;;;;;;;1.10;1.10;;;;;;;-146.25;100.00;57403.91;4961848;29;20616;-92
2023/05/29 11:18:11;;;;;;;1.58;1.48;;;;;;;-146.25;100.00;57403.91;4967234;29;20249;-92
2023/05/29 11:24:38;;;;;;;1.45;1.35;;;;;;;-146.25;100.00;57403.91;4952052;29;20298;-95
2023/05/29 11:27:44;;;;;;;1.02;1.02;;;;;;;-146.25;100.00;57403.91;4955975;29;20640;-93
2023/05/29 11:30:39;;;;;;;2.20;1.42;;;;;;;-146.25;100.00;57403.91;4896330;29;20268;-93
2023/05/29 11:33:15;;;;;;;1.67;1.27;;;;;;;-146.25;100.00;57403.91;4897605;29;20296;-93
2023/05/29 11:36:21;;;;;;;1.92;1.23;;;;;;;-146.25;100.00;57403.91;4912580;29;20748;-94
2023/05/29 11:42:24;;;;;;;1.17;1.08;;;;;;;-146.25;100.00;57403.91;4934729;29;20270;-93
2023/05/29 11:45:27;;;;;;;1.10;1.10;;;;;;;-146.25;100.00;57403.91;4936687;29;20207;-93
2023/05/29 11:52:03;;;;;;;;;;;;;;;;;;;;;
2023/05/29 12:13:05;;;;;;;1.20;1.10;;;;;;;;;;5065362;23;20259;-93
2023/05/29 12:15:42;;;;;;;1.20;1.20;;;;;;;;;;5050256;28;20196;-92
2023/05/29 12:21:08;;;;;;;1.38;1.27;;;;;;;;;;5034685;28;20207;-93
2023/05/29 12:23:59;;;;;;;1.10;1.10;;;;;;;;;;5050496;28;20249;-92
2023/05/29 12:26:47;;;;;;;1.55;1.27;;;;;;;;;;5059716;28;20195;-93
2023/05/29 12:29:48;;;;;;;1.08;1.08;;;;;;;;;;5049441;28;20199;-91
2023/05/29 12:33:04;;;;;;;;;;;;;;;;;;;;;
2023/05/29 12:42:08;;;;;;;;;;;;;;;;;;;;;
2023/05/29 13:50:15;;;;;;;1.20;1.20;;;;;;;;;;4866003;29;20345;-96
2023/05/29 13:53:16;;;;;;;;;;;;;;;;;;;;;
2023/05/29 13:56:14;;;;;;;1.20;1.20;;;;;;;;;;4901061;29;20280;-92
2023/05/29 13:59:05;;;;;;;0.95;0.95;;;;;;;;;;4960635;28;20230;-92
2023/05/29 14:01:38;;;;;;;1.20;1.20;;;;;;;;;;4954209;28;20249;-94
2023/05/29 14:04:08;;;;;;;1.20;1.20;;;;;;;;;;4965065;28;20245;-93
2023/05/29 14:06:51;;;;;;;1.50;1.40;;;;;;;;;;4956139;28;20230;-94
2023/05/29 14:09:41;;;;;;;1.67;1.60;;;;;;;;;;4956961;28;20238;-94
2023/05/29 14:12:32;;;;;;;1.95;1.10;;;;;;;;;;4946019;29;20232;-94
2023/05/29 14:15:23;;;;;;;1.67;1.42;;;;;;;;;;4942999;29;20276;-94
2023/05/29 14:18:20;;;;;;;1.23;1.13;;;;;;;;;;4896399;29;20270;-92
2023/05/29 14:42:21;;;;;;;0.50;0.50;;;;;;;;;;4937801;29;20253;-92
2023/05/29 14:45:11;;;;;;;0.50;0.50;;;;;;;;;;4936426;29;20233;-94
2023/05/29 14:48:17;;;;;;;1.10;0.50;;;;;;;;;;4951190;28;20241;-94
2023/05/29 15:03:19;;;;;;;0.57;0.57;;;;;;;;;;4900767;29;20796;-93
2023/05/29 15:11:56;;;;;;;0.35;0.35;;;;;;;;;;4950917;28;20325;-93
2023/05/29 15:23:38;;;;;;;0.75;0.70;;;;;;;;;;4929278;28;20250;-93
2023/05/29 15:29:18;;;;;;;0.82;0.82;;;;;;;;;;4891727;29;20665;-95
2023/05/29 15:35:08;;;;;;;0.63;0.63;;;;;;;;;;4879038;29;20269;-94
2023/05/29 15:54:01;;;;;;;;;;;;;;;;;;;;;
2023/05/29 16:00:11;;;;;;;0.88;0.88;;;;;;;;;;4941124;28;20240;-94
2023/05/29 16:12:26;;;;;;;1.67;0.73;;;;;;;;;;4930030;29;20302;-92
2023/05/29 16:38:33;;;;;;;2.30;1.50;;;;;;;;;;4933662;29;20241;-92
2023/05/29 16:41:25;;;;;;;1.58;1.48;;;;;;;;;;4936459;29;20231;-92
2023/05/29 16:46:42;;;;;;;1.65;1.58;;;;;;;;;;4968425;28;20284;-93
2023/05/29 16:49:45;;;;;;;1.38;1.00;;;;;;;;;;4971079;28;20588;-92
2023/05/29 16:52:30;;;;;;;0.82;0.82;;;;;;;;;;4959334;28;20259;-93
2023/05/29 16:55:13;;;;;;;0.90;0.90;;;;;;;;;;4975717;28;20249;-94
2023/05/29 16:58:02;;;;;;;0.95;0.95;;;;;;;;;;4976861;28;20682;-93
2023/05/29 17:00:41;;;;;;;1.13;1.13;;;;;;;;;;4973333;28;20236;-93
2023/05/29 17:03:44;;;;;;;;;;;;;;;;;;;;;
2023/05/29 17:06:46;;;;;;;2.78;1.23;;;;;;;;;;4942448;28;20221;-93
2023/05/29 17:16:14;;;;;;;2.15;1.20;;;;;;;;;;4879039;29;20248;-94
2023/05/29 17:24:57;;;;;;;1.33;1.30;;;;;;;;;;4924267;29;20246;-91
2023/05/29 17:30:33;;;;;;;1.20;1.17;;;;;;;;;;4921552;29;20242;-92
2023/05/29 17:39:39;;;;;;;1.88;1.67;;;;;;;;;;4852129;29;20328;-94
2023/05/29 17:45:29;;;;;;;1.52;1.42;;;;;;;;;;4910417;29;21542;-95
2023/05/29 17:48:24;;;;;;;1.95;1.85;;;;;;;;;;4908962;29;20276;-93
2023/05/29 18:51:45;;;;;;;1.85;1.75;;;;;;;;;;4940821;29;20233;-90
2023/05/29 18:54:39;;;;;;;2.40;2.20;;;;;;;;;;4883241;29;20325;-94
2023/05/29 18:57:39;;;;;;;2.47;2.28;;;;;;;;;;4890352;29;20272;-91
2023/05/29 19:03:42;;;;;;;1.67;1.60;;;;;;;;;;4967489;28;20273;-92
2023/05/29 19:06:27;;;;;;;1.85;1.75;;;;;;;;;;4968914;28;20227;-92
2023/05/29 19:15:26;;;;;;;1.30;1.10;;;;;;;;;;4933964;29;20279;-92
2023/05/29 19:24:25;;;;;;;;;;;;;;;;;;;;;
2023/05/29 19:27:18;;;;;;;1.98;1.88;;;;;;;;;;4949296;29;20661;-92
2023/05/29 19:33:03;;;;;;;2.00;1.90;;;;;;;;;;4933138;29;20359;-92
2023/05/29 19:41:45;;;;;;;2.03;1.92;;;;;;;;;;4937901;29;20331;-91
2023/05/29 19:47:21;;;;;;;1.67;1.10;;;;;;;;;;4959933;29;20368;-92
2023/05/29 19:50:13;;;;;;;1.13;1.13;;;;;;;;;;4953664;29;20242;-92
2023/05/29 19:52:59;;;;;;;1.80;1.70;;;;;;;;;;4964710;29;20326;-92
2023/05/29 19:58:39;;;;;;;1.13;0.90;;;;;;;;;;4903286;29;20294;-93
2023/05/29 20:01:43;;;;;;;;;;;;;;;;;;;;;
2023/05/29 22:47:44;;;;;;;2.07;1.00;;;;;;;;;;4939070;28;20717;-95
2023/05/29 22:56:37;;;;;;;2.20;1.20;;;;;;;;;;4858451;29;20269;-94
2023/05/29 23:02:25;;;;;;;1.20;1.20;;;;;;;;;;4938949;29;20219;-94
2023/05/29 23:11:48;;;;;;;1.43;1.17;;;;;;;;;;4886201;29;20263;-95
2023/05/29 23:14:49;;;;;;;0.97;0.97;;;;;;;;;;4872947;29;20212;-95
2023/05/29 23:21:14;;;;;;;;;;;;;;;;;;;;;
2023/05/29 23:24:10;;;;;;;1.67;1.57;;;;;;;;;;4876066;29;20206;-95
2023/05/29 23:29:28;;;;;;;1.10;1.10;;;;;;;;;;4855064;29;20209;-94
2023/05/29 23:49:58;;;;;;;0.80;0.80;;;;;;;;;;4895775;29;20256;-94
2023/05/29 23:52:43;;;;;;;2.00;1.17;;;;;;;;;;4897951;29;20297;-94
2023/05/29 23:55:52;;;;;;;0.87;0.87;;;;;;;;;;4898289;29;20212;-94
